Time;durP1;ratioP1;P1;durP2;ratioP2;P2;SDS_P1;SDS_P2;PMS_P1;PMS_P2;Temp;Humidity;BMP_temperature;BMP_pressure;BME280_temperature;BME280_humidity;BME280_pressure;Samples;Min_cycle;Max_cycle;Signal;HPM_P1;HPM_P2
2021/07/24 00:01:14;;;;;;;0.40;0.40;;;;;;;13.42;69.53;97162.97;5074987;28;20044;-75
2021/07/24 00:03:40;;;;;;;0.20;0.20;;;;;;;13.48;69.43;97161.78;5075127;28;20051;-74
2021/07/24 00:06:07;;;;;;;0.20;0.20;;;;;;;13.57;69.41;97164.72;5075247;28;20044;-74
2021/07/24 00:08:33;;;;;;;0.20;0.20;;;;;;;13.65;69.42;97164.88;5075328;28;20041;-75
2021/07/24 00:11:04;;;;;;;0.10;0.10;;;;;;;13.74;68.88;97173.31;5074218;28;20041;-76
2021/07/24 00:13:31;;;;;;;0.73;0.73;;;;;;;13.83;69.03;97173.50;5074600;28;20544;-73
2021/07/24 00:15:57;;;;;;;0.10;0.10;;;;;;;13.90;68.64;97182.22;5075021;28;20036;-74
2021/07/24 00:18:22;;;;;;;0.10;0.10;;;;;;;13.88;68.87;97181.69;5075146;28;20098;-73
2021/07/24 00:20:49;;;;;;;0.22;0.22;;;;;;;13.91;68.91;97186.59;5074440;28;20041;-75
2021/07/24 00:23:15;;;;;;;0.10;0.10;;;;;;;13.95;68.86;97182.13;5074345;28;20048;-75
2021/07/24 00:25:41;;;;;;;0.20;0.20;;;;;;;14.02;68.62;97179.03;5074793;28;20041;-76
2021/07/24 00:28:07;;;;;;;0.20;0.20;;;;;;;14.14;68.35;97187.69;5075316;28;20040;-76
2021/07/24 00:30:36;;;;;;;0.20;0.20;;;;;;;14.28;68.15;97179.50;5074872;28;20036;-76
2021/07/24 00:33:02;;;;;;;0.10;0.10;;;;;;;14.47;67.57;97176.72;5074185;28;20513;-75
2021/07/24 00:35:28;;;;;;;0.10;0.10;;;;;;;14.61;67.42;97182.31;5074821;28;20052;-77
2021/07/24 00:37:53;;;;;;;0.30;0.30;;;;;;;14.70;67.13;97185.22;5074924;28;20040;-75
2021/07/24 00:40:25;;;;;;;0.20;0.20;;;;;;;14.76;67.15;97192.28;5074420;28;20036;-80
2021/07/24 00:42:52;;;;;;;0.13;0.13;;;;;;;14.79;67.00;97190.88;5073648;28;20119;-75
2021/07/24 00:45:22;;;;;;;0.22;0.22;;;;;;;14.80;67.28;97181.47;5074227;28;20486;-73
2021/07/24 00:47:55;;;;;;;0.10;0.10;;;;;;;14.84;67.37;97190.75;5055797;28;20127;-73
2021/07/24 00:50:22;;;;;;;0.10;0.10;;;;;;;14.88;67.20;97197.34;5073569;28;20044;-75
2021/07/24 00:52:48;;;;;;;0.20;0.20;;;;;;;14.97;66.85;97205.75;5074008;28;20048;-74
2021/07/24 00:55:16;;;;;;;0.20;0.20;;;;;;;15.12;66.66;97199.13;5073791;28;20163;-73
2021/07/24 00:57:44;;;;;;;0.45;0.45;;;;;;;15.27;66.44;97207.16;5073461;28;20447;-73
2021/07/24 01:00:11;;;;;;;0.10;0.10;;;;;;;15.38;66.11;97213.31;5073385;28;20036;-73
2021/07/24 01:02:37;;;;;;;0.20;0.20;;;;;;;15.48;66.26;97204.81;5073815;28;20036;-74
2021/07/24 01:05:05;;;;;;;0.20;0.20;;;;;;;15.56;66.05;97204.13;5073508;28;20041;-74
2021/07/24 01:07:40;;;;;;;0.10;0.10;;;;;;;15.57;66.04;97196.63;5074100;28;20566;-73
2021/07/24 01:10:07;;;;;;;0.22;0.22;;;;;;;15.55;66.24;97201.66;5073639;28;20037;-70
2021/07/24 01:12:34;;;;;;;0.40;0.40;;;;;;;15.57;66.28;97204.94;5072556;28;20498;-70
2021/07/24 01:15:05;;;;;;;0.10;0.10;;;;;;;15.65;65.92;97198.69;5054668;28;20387;-70
2021/07/24 01:17:30;;;;;;;0.20;0.20;;;;;;;15.77;65.70;97201.75;5073021;28;20040;-70
2021/07/24 01:19:56;;;;;;;0.10;0.10;;;;;;;15.91;65.28;97201.75;5073220;28;20063;-71
2021/07/24 01:22:22;;;;;;;0.22;0.22;;;;;;;16.06;65.23;97203.41;5073580;28;20044;-71
2021/07/24 01:24:48;;;;;;;0.32;0.32;;;;;;;16.35;64.55;97199.41;5088028;28;20041;-76
2021/07/24 01:27:13;;;;;;;0.40;0.40;;;;;;;16.51;64.24;97204.63;5083495;28;20048;-75
2021/07/24 01:29:39;;;;;;;0.30;0.30;;;;;;;16.69;63.95;97208.34;5074774;28;20044;-72
2021/07/24 01:32:05;;;;;;;0.30;0.30;;;;;;;16.81;63.74;97214.13;5073437;28;20045;-76
2021/07/24 01:34:31;;;;;;;0.10;0.10;;;;;;;16.88;63.72;97214.53;5073333;28;20052;-75
2021/07/24 01:36:57;;;;;;;0.20;0.20;;;;;;;16.98;63.65;97219.03;5073015;28;20136;-75
2021/07/24 01:39:24;;;;;;;0.10;0.10;;;;;;;17.43;62.61;97218.13;5075628;28;20074;-76
2021/07/24 01:41:50;;;;;;;0.30;0.30;;;;;;;17.61;62.42;97221.81;5074251;28;20239;-75
2021/07/24 01:44:16;;;;;;;0.22;0.13;;;;;;;17.74;62.02;97223.66;5077205;28;20166;-76
2021/07/24 01:46:43;;;;;;;0.17;0.17;;;;;;;17.99;61.52;97224.09;5059827;28;20037;-77
2021/07/24 01:54:39;;;;;;;2.05;0.98;;;;;;;18.64;60.35;97213.22;5073555;28;20414;-75
2021/07/24 01:57:09;;;;;;;0.15;0.15;;;;;;;19.12;59.58;97215.03;5055210;28;20044;-75
2021/07/24 01:59:42;;;;;;;0.20;0.20;;;;;;;19.84;58.14;97222.84;5073389;28;20040;-76
2021/07/24 02:02:09;;;;;;;0.20;0.20;;;;;;;20.24;57.44;97214.13;5054916;28;20064;-76
2021/07/24 02:04:40;;;;;;;0.20;0.20;;;;;;;20.16;57.66;97223.38;5072878;28;20045;-77
2021/07/24 02:07:10;;;;;;;0.20;0.20;;;;;;;20.02;58.39;97229.97;5073058;28;20506;-76
2021/07/24 02:09:36;;;;;;;0.10;0.10;;;;;;;19.85;59.10;97230.88;5073112;28;20040;-77
2021/07/24 02:12:03;;;;;;;0.10;0.10;;;;;;;19.72;59.25;97226.31;5071835;28;20467;-77
2021/07/24 02:14:34;;;;;;;0.10;0.10;;;;;;;19.48;59.99;97216.59;5072773;28;20402;-75
2021/07/24 02:17:01;;;;;;;0.30;0.30;;;;;;;19.33;60.54;97220.72;5073176;28;20037;-76
2021/07/24 02:19:30;;;;;;;0.77;0.43;;;;;;;19.48;60.11;97222.16;5073274;28;20128;-75
2021/07/24 02:21:55;;;;;;;0.10;0.10;;;;;;;20.60;57.78;97224.69;5072814;28;20040;-76
2021/07/24 02:24:21;;;;;;;0.10;0.10;;;;;;;21.91;54.55;97230.16;5072428;28;20093;-77
2021/07/24 02:26:47;;;;;;;0.35;0.35;;;;;;;23.05;52.72;97223.69;5072687;28;20162;-75
2021/07/24 02:29:12;;;;;;;0.55;0.55;;;;;;;23.16;52.70;97226.81;5073094;28;20396;-74
2021/07/24 02:31:38;;;;;;;0.10;0.10;;;;;;;22.78;54.02;97226.13;5072247;28;20047;-73
2021/07/24 02:34:04;;;;;;;0.90;0.45;;;;;;;22.33;54.94;97233.56;5072045;28;20064;-75
2021/07/24 02:36:30;;;;;;;0.13;0.13;;;;;;;23.55;52.55;97227.09;5072360;28;20045;-74
2021/07/24 02:38:55;;;;;;;0.20;0.20;;;;;;;24.72;50.54;97230.41;5072517;28;20126;-74
2021/07/24 02:41:21;;;;;;;0.10;0.10;;;;;;;25.42;49.29;97225.03;5072307;28;20037;-75
2021/07/24 02:43:47;;;;;;;0.10;0.10;;;;;;;25.33;49.63;97225.25;5072428;28;20127;-76
2021/07/24 02:46:18;;;;;;;0.20;0.20;;;;;;;25.33;50.32;97228.06;5054213;28;20119;-73
2021/07/24 02:48:47;;;;;;;0.10;0.10;;;;;;;25.65;49.78;97225.06;5072086;28;20612;-73
2021/07/24 02:51:14;;;;;;;0.10;0.10;;;;;;;25.17;51.07;97223.31;5072933;28;20457;-74
2021/07/24 02:53:40;;;;;;;0.10;0.10;;;;;;;24.40;53.03;97224.84;5072231;28;20456;-73
2021/07/24 02:56:06;;;;;;;0.10;0.10;;;;;;;23.78;54.32;97232.91;5054244;28;20076;-72
2021/07/24 02:58:31;;;;;;;0.43;0.43;;;;;;;23.47;55.04;97237.31;5072480;28;20123;-73
2021/07/24 03:00:57;;;;;;;0.10;0.10;;;;;;;23.67;54.60;97229.00;5071820;28;20582;-73
2021/07/24 03:03:23;;;;;;;0.45;0.30;;;;;;;23.72;54.18;97237.97;5071999;28;20044;-72
2021/07/24 03:05:49;;;;;;;0.10;0.10;;;;;;;23.99;53.52;97229.88;5072407;28;20036;-73
2021/07/24 03:08:15;;;;;;;0.10;0.10;;;;;;;24.97;51.15;97224.50;5072389;28;20098;-74
2021/07/24 03:10:40;;;;;;;0.25;0.25;;;;;;;25.66;49.87;97227.50;5072015;28;20036;-72
2021/07/24 03:13:06;;;;;;;0.55;0.40;;;;;;;26.30;48.91;97223.38;5071413;28;20478;-73
2021/07/24 03:15:32;;;;;;;0.10;0.10;;;;;;;27.30;47.07;97220.28;5072073;28;20090;-72
2021/07/24 03:17:58;;;;;;;0.10;0.10;;;;;;;28.33;45.40;97219.72;5071819;28;20044;-72
2021/07/24 03:20:23;;;;;;;0.10;0.10;;;;;;;29.56;43.57;97220.38;5071675;28;20047;-73
2021/07/24 03:22:49;;;;;;;0.10;0.10;;;;;;;30.86;42.04;97224.84;5073011;28;20041;-69
2021/07/24 03:25:16;;;;;;;0.10;0.10;;;;;;;31.67;41.16;97223.31;5075632;28;20495;-75
2021/07/24 03:27:41;;;;;;;0.10;0.10;;;;;;;32.56;40.09;97223.88;5076865;28;20043;-81
2021/07/24 03:30:08;;;;;;;0.10;0.10;;;;;;;33.11;39.86;97217.22;5075916;28;20127;-79
2021/07/24 03:32:34;;;;;;;0.10;0.10;;;;;;;33.51;39.33;97223.22;5085956;28;20020;-78
2021/07/24 03:34:59;;;;;;;0.13;0.13;;;;;;;33.37;40.45;97222.63;5085031;28;20043;-76
2021/07/24 03:37:25;;;;;;;0.35;0.25;;;;;;;33.86;40.15;97220.31;5082812;28;20092;-75
2021/07/24 03:39:51;;;;;;;0.10;0.10;;;;;;;33.92;40.38;97218.56;5075976;28;20448;-75
2021/07/24 03:42:16;;;;;;;0.10;0.10;;;;;;;34.37;39.51;97220.34;5068683;28;20041;-73
2021/07/24 03:44:42;;;;;;;0.75;0.32;;;;;;;35.61;38.04;97224.03;5055411;28;20495;-72
2021/07/24 03:47:08;;;;;;;0.25;0.25;;;;;;;36.82;36.26;97213.00;5055024;28;20120;-74
2021/07/24 03:49:33;;;;;;;1.10;0.40;;;;;;;38.10;35.04;97217.38;5055508;28;20514;-74
2021/07/24 03:51:59;;;;;;;0.10;0.10;;;;;;;38.60;34.52;97214.91;5054998;28;20056;-73
2021/07/24 03:54:27;;;;;;;0.10;0.10;;;;;;;38.84;34.67;97203.88;5055023;28;20076;-73
2021/07/24 03:56:52;;;;;;;1.65;0.40;;;;;;;38.53;35.37;97206.56;5055539;28;20033;-82
2021/07/24 03:59:18;;;;;;;0.22;0.22;;;;;;;38.43;35.66;97222.88;5055166;28;20037;-76
2021/07/24 04:01:44;;;;;;;0.10;0.10;;;;;;;38.60;35.50;97212.03;5054805;28;20540;-76
2021/07/24 04:04:12;;;;;;;0.10;0.10;;;;;;;38.61;35.78;97198.53;5054870;28;20498;-71
2021/07/24 04:06:38;;;;;;;0.10;0.10;;;;;;;38.94;35.32;97207.59;5054864;28;20507;-71
2021/07/24 04:09:07;;;;;;;0.13;0.13;;;;;;;39.41;34.70;97200.94;5054868;28;20033;-72
2021/07/24 04:11:33;;;;;;;0.10;0.10;;;;;;;39.93;34.17;97203.44;5036138;28;20041;-73
2021/07/24 04:13:59;;;;;;;1.55;0.17;;;;;;;40.13;34.13;97205.97;5054135;28;20044;-72
2021/07/24 04:16:27;;;;;;;0.10;0.10;;;;;;;39.98;34.23;97202.06;5054410;28;20174;-71
2021/07/24 04:18:54;;;;;;;0.20;0.20;;;;;;;39.75;34.62;97201.31;5054099;28;20041;-71
2021/07/24 04:21:20;;;;;;;0.20;0.10;;;;;;;39.58;34.70;97192.94;5054330;28;20040;-72
2021/07/24 04:23:46;;;;;;;0.20;0.20;;;;;;;40.23;33.63;97195.31;5054235;28;20037;-73
2021/07/24 04:26:11;;;;;;;0.15;0.15;;;;;;;40.51;33.35;97198.28;5053817;28;20041;-71
2021/07/24 04:28:37;;;;;;;0.10;0.10;;;;;;;40.87;32.78;97200.34;5053786;28;20037;-70
2021/07/24 04:31:03;;;;;;;0.10;0.10;;;;;;;40.80;32.85;97203.56;5053949;28;20065;-69
2021/07/24 04:33:29;;;;;;;0.10;0.10;;;;;;;41.15;32.26;97206.94;5053766;28;20124;-70
2021/07/24 04:35:55;;;;;;;0.20;0.20;;;;;;;41.58;31.67;97209.13;5035669;28;20052;-72
2021/07/24 04:38:21;;;;;;;0.20;0.20;;;;;;;42.11;31.28;97205.75;5036450;28;20033;-72
2021/07/24 04:40:46;;;;;;;0.10;0.10;;;;;;;42.61;30.68;97214.00;5054669;28;20048;-74
2021/07/24 04:43:16;;;;;;;0.17;0.17;;;;;;;42.86;30.51;97197.44;5053538;28;20040;-78
2021/07/24 04:45:43;;;;;;;0.13;0.13;;;;;;;42.91;30.16;97202.56;5054608;28;20103;-77
2021/07/24 04:48:10;;;;;;;0.20;0.20;;;;;;;42.94;30.70;97206.56;5054428;28;20087;-74
2021/07/24 04:50:42;;;;;;;0.20;0.20;;;;;;;43.31;29.75;97188.91;5054145;28;20052;-76
2021/07/24 04:53:10;;;;;;;1.27;0.20;;;;;;;43.48;30.09;97190.03;5053590;28;20124;-74
2021/07/24 04:55:38;;;;;;;0.10;0.10;;;;;;;43.41;29.98;97190.41;5054205;28;20033;-74
2021/07/24 04:58:05;;;;;;;0.10;0.10;;;;;;;43.28;29.98;97195.69;5052339;28;20037;-73
2021/07/24 05:00:32;;;;;;;0.47;0.43;;;;;;;43.46;29.84;97192.59;5053977;28;20128;-76
2021/07/24 05:02:57;;;;;;;0.20;0.20;;;;;;;43.63;29.35;97203.66;5053559;28;20043;-73
2021/07/24 05:05:23;;;;;;;0.10;0.10;;;;;;;43.48;29.76;97200.78;5054191;28;20131;-74
2021/07/24 05:07:49;;;;;;;0.20;0.20;;;;;;;43.38;29.95;97188.50;5053532;28;20071;-74
2021/07/24 05:10:15;;;;;;;0.30;0.30;;;;;;;43.29;29.95;97195.19;5053729;28;20041;-74
2021/07/24 05:12:41;;;;;;;0.15;0.15;;;;;;;43.15;29.51;97199.63;5034471;28;20055;-74
2021/07/24 05:15:47;;;;;;;0.10;0.10;;;;;;;43.06;30.03;97186.06;5060780;28;20398;-73
2021/07/24 05:25:39;;;;;;;0.20;0.20;;;;;;;43.33;29.52;97183.41;5048049;28;20075;-70
2021/07/24 05:28:44;;;;;;;0.10;0.10;;;;;;;43.32;29.18;97181.81;5050558;28;20041;-72
2021/07/24 05:31:56;;;;;;;0.20;0.20;;;;;;;42.87;29.74;97182.53;5053220;28;20049;-75
2021/07/24 05:35:01;;;;;;;0.20;0.20;;;;;;;42.69;29.65;97185.56;5051269;28;20495;-71
2021/07/24 05:38:07;;;;;;;0.15;0.15;;;;;;;42.47;29.36;97189.53;5030936;28;20056;-72
2021/07/24 05:47:58;;;;;;;0.30;0.30;;;;;;;35.46;37.77;97190.56;5026383;28;20052;-70
2021/07/24 05:51:03;;;;;;;0.93;0.45;;;;;;;32.72;41.49;97189.25;5032658;28;20121;-70
2021/07/24 05:54:10;;;;;;;0.20;0.20;;;;;;;30.77;43.76;97187.63;5032637;28;20471;-71
2021/07/24 05:57:15;;;;;;;0.10;0.10;;;;;;;29.36;45.16;97196.09;5014240;28;20052;-69
2021/07/24 06:00:21;;;;;;;0.22;0.22;;;;;;;28.33;45.57;97199.97;5032702;28;20045;-70
2021/07/24 06:03:26;;;;;;;0.10;0.10;;;;;;;27.57;45.56;97195.66;5032257;28;20530;-74
2021/07/24 06:06:32;;;;;;;0.10;0.10;;;;;;;26.85;45.36;97197.63;5014444;28;20188;-72
2021/07/24 06:09:37;;;;;;;0.00;0.00;;;;;;;26.07;45.76;97196.06;5032275;28;20081;-71
2021/07/24 06:16:06;;;;;;;0.15;0.15;;;;;;;24.85;45.87;97203.00;5026795;28;20107;-77
2021/07/24 06:19:11;;;;;;;0.10;0.10;;;;;;;24.54;45.18;97203.91;5026076;28;20049;-71
2021/07/24 06:22:16;;;;;;;0.17;0.17;;;;;;;24.31;44.73;97207.41;5031921;28;20053;-70
2021/07/24 06:28:45;;;;;;;0.20;0.20;;;;;;;23.95;43.91;97210.16;5029120;28;20200;-71
2021/07/24 06:31:50;;;;;;;0.10;0.10;;;;;;;23.92;43.42;97213.66;5032119;28;20395;-70
2021/07/24 06:34:56;;;;;;;0.10;0.10;;;;;;;23.85;43.19;97209.84;5013848;28;20037;-68
2021/07/24 06:38:01;;;;;;;0.10;0.10;;;;;;;23.73;42.67;97208.78;5013857;28;20054;-72
2021/07/24 06:41:07;;;;;;;0.10;0.10;;;;;;;23.55;42.57;97218.69;5032816;28;20041;-77
2021/07/24 06:47:36;;;;;;;0.10;0.10;;;;;;;23.18;42.72;97216.09;5024519;28;20081;-74
2021/07/24 06:50:41;;;;;;;0.10;0.10;;;;;;;23.15;42.35;97211.22;5018674;28;20045;-70
2021/07/24 06:53:47;;;;;;;0.10;0.10;;;;;;;23.10;42.15;97203.91;5019843;28;20046;-73
2021/07/24 06:56:52;;;;;;;0.10;0.10;;;;;;;22.96;41.98;97214.66;5020571;28;20038;-71
2021/07/24 06:59:58;;;;;;;0.20;0.15;;;;;;;22.88;41.77;97213.63;5024434;28;20505;-72
2021/07/24 07:06:27;;;;;;;0.10;0.10;;;;;;;22.74;41.77;97206.44;5021030;28;20136;-74
2021/07/24 07:12:54;;;;;;;0.10;0.10;;;;;;;22.76;40.99;97206.06;5022044;28;20897;-74
2021/07/24 07:16:00;;;;;;;0.10;0.10;;;;;;;22.86;41.07;97204.78;5021843;28;20064;-73
2021/07/24 07:19:06;;;;;;;0.10;0.10;;;;;;;22.90;40.71;97220.50;5023019;28;20045;-74
2021/07/24 07:22:12;;;;;;;0.10;0.10;;;;;;;22.89;40.53;97212.44;5004390;28;20045;-74
2021/07/24 07:25:17;;;;;;;0.10;0.10;;;;;;;22.82;40.52;97215.03;5021298;28;20427;-73
2021/07/24 07:28:23;;;;;;;0.10;0.10;;;;;;;22.79;40.46;97204.56;5023328;28;20052;-72
2021/07/24 07:31:28;;;;;;;0.13;0.13;;;;;;;22.74;40.10;97197.22;5024764;28;20046;-72
2021/07/24 08:04:52;;;;;;;0.10;0.10;;;;;;;22.43;39.71;97217.47;5033630;28;20442;-74
2021/07/24 08:07:18;;;;;;;0.00;0.00;;;;;;;22.45;39.60;97210.34;5035133;28;20045;-74
2021/07/24 08:09:44;;;;;;;0.10;0.10;;;;;;;22.42;39.60;97216.66;5033800;28;20041;-73
2021/07/24 08:12:09;;;;;;;0.10;0.10;;;;;;;22.38;39.31;97208.16;5034332;28;20087;-73
2021/07/24 08:14:35;;;;;;;0.20;0.20;;;;;;;22.40;39.31;97225.38;5034928;28;20524;-73
2021/07/24 08:17:01;;;;;;;2.00;0.77;;;;;;;22.47;39.25;97219.22;5033808;28;20092;-74
2021/07/24 08:19:27;;;;;;;0.30;0.30;;;;;;;22.54;39.09;97224.19;5034879;28;20033;-73
2021/07/24 08:21:52;;;;;;;0.20;0.20;;;;;;;22.54;38.90;97216.63;5034666;28;20565;-75
2021/07/24 08:24:18;;;;;;;0.35;0.30;;;;;;;22.48;39.48;97223.66;5034728;28;20044;-74
2021/07/24 08:26:44;;;;;;;0.20;0.20;;;;;;;22.45;39.43;97217.94;5035323;28;20116;-74
2021/07/24 08:29:10;;;;;;;0.10;0.10;;;;;;;22.53;39.18;97222.59;5033788;28;20033;-74
2021/07/24 08:31:36;;;;;;;0.57;0.40;;;;;;;22.75;38.62;97212.84;5035116;28;20527;-73
2021/07/24 08:34:01;;;;;;;0.20;0.20;;;;;;;23.06;38.13;97220.53;5035237;28;20136;-73
2021/07/24 08:36:27;;;;;;;0.10;0.10;;;;;;;23.44;37.83;97216.44;5034518;28;20124;-73
2021/07/24 08:38:53;;;;;;;0.10;0.10;;;;;;;23.71;37.27;97221.53;5034971;28;20063;-77
2021/07/24 08:41:18;;;;;;;0.10;0.10;;;;;;;23.89;36.99;97213.59;5033814;28;20073;-73
2021/07/24 08:43:45;;;;;;;0.03;0.03;;;;;;;23.93;36.96;97206.91;5034336;28;20477;-73
2021/07/24 08:46:16;;;;;;;0.43;0.20;;;;;;;23.91;36.99;97211.22;5034450;28;20049;-72
2021/07/24 08:48:42;;;;;;;0.10;0.10;;;;;;;23.86;37.08;97209.50;5033978;28;20176;-74
2021/07/24 08:51:14;;;;;;;0.10;0.10;;;;;;;23.82;37.24;97207.78;5033672;28;20547;-73
2021/07/24 08:53:42;;;;;;;0.10;0.10;;;;;;;23.80;37.51;97200.53;5033717;28;20044;-75
2021/07/24 08:56:22;;;;;;;0.10;0.10;;;;;;;23.74;37.55;97187.97;5033880;28;20037;-72
2021/07/24 08:58:56;;;;;;;0.10;0.10;;;;;;;23.68;37.52;97192.22;5033824;28;20041;-73
2021/07/24 09:01:22;;;;;;;0.10;0.10;;;;;;;23.65;37.80;97206.97;5034266;28;20068;-72
2021/07/24 09:03:48;;;;;;;0.10;0.10;;;;;;;23.62;37.51;97191.69;5046681;28;20098;-73
2021/07/24 09:06:23;;;;;;;0.17;0.17;;;;;;;23.69;37.45;97193.03;5053330;28;20037;-73
2021/07/24 09:08:51;;;;;;;0.10;0.10;;;;;;;23.79;37.19;97200.91;5053804;28;20040;-73
2021/07/24 09:11:19;;;;;;;0.25;0.25;;;;;;;23.87;37.47;97211.16;5053148;28;20069;-72
2021/07/24 09:13:44;;;;;;;0.17;0.17;;;;;;;24.02;37.20;97203.09;5053380;28;20500;-72
2021/07/24 09:16:10;;;;;;;0.10;0.10;;;;;;;24.18;36.88;97201.09;5053449;28;20041;-72
2021/07/24 09:18:37;;;;;;;0.10;0.10;;;;;;;24.10;37.14;97194.50;5053667;28;20033;-73
2021/07/24 09:21:03;;;;;;;0.10;0.10;;;;;;;24.03;36.80;97197.13;5053187;28;20052;-73
2021/07/24 09:23:36;;;;;;;0.10;0.10;;;;;;;23.93;37.05;97186.47;5053398;28;20076;-73
2021/07/24 09:26:06;;;;;;;0.10;0.10;;;;;;;24.03;37.18;97194.31;5053385;28;20037;-74
2021/07/24 09:28:33;;;;;;;0.35;0.35;;;;;;;24.14;37.19;97195.41;5053489;28;20395;-73
2021/07/24 09:31:18;;;;;;;0.32;0.32;;;;;;;24.16;36.71;97197.00;5053048;28;20071;-73
2021/07/24 09:33:51;;;;;;;0.20;0.20;;;;;;;24.12;37.03;97200.56;5053179;28;20052;-73
2021/07/24 09:36:37;;;;;;;0.10;0.10;;;;;;;24.16;36.79;97202.63;5053308;28;20492;-72
2021/07/24 09:39:11;;;;;;;0.10;0.10;;;;;;;24.13;36.90;97202.19;5053189;28;20045;-75
2021/07/24 09:41:42;;;;;;;0.20;0.20;;;;;;;24.27;36.81;97203.69;5052660;28;20048;-75
2021/07/24 09:44:08;;;;;;;0.47;0.47;;;;;;;24.48;36.12;97211.78;5053173;28;20048;-74
2021/07/24 09:46:35;;;;;;;0.20;0.20;;;;;;;24.58;36.01;97207.59;5053359;28;20419;-74
2021/07/24 09:49:14;;;;;;;0.10;0.10;;;;;;;24.57;36.45;97195.56;5054441;28;20155;-74
2021/07/24 09:51:41;;;;;;;0.17;0.17;;;;;;;24.45;36.29;97209.72;5075878;28;20033;-73
2021/07/24 09:54:24;;;;;;;0.10;0.10;;;;;;;24.49;36.29;97205.81;5060271;28;20064;-76
2021/07/24 09:56:51;;;;;;;0.10;0.10;;;;;;;24.68;36.22;97200.66;5055349;28;20037;-73
2021/07/24 09:59:24;;;;;;;0.10;0.10;;;;;;;24.86;36.07;97203.81;5053000;28;20049;-75
2021/07/24 10:01:57;;;;;;;0.20;0.20;;;;;;;24.88;35.56;97198.63;5053130;28;20041;-73
2021/07/24 10:04:30;;;;;;;0.63;0.63;;;;;;;24.61;36.12;97196.47;5045205;28;20083;-75
2021/07/24 10:06:58;;;;;;;0.10;0.10;;;;;;;24.27;36.54;97206.50;5052044;28;20529;-74
2021/07/24 10:09:30;;;;;;;0.30;0.13;;;;;;;24.02;37.26;97205.91;5051683;28;20048;-76
2021/07/24 10:12:03;;;;;;;0.10;0.10;;;;;;;23.88;37.22;97203.56;5052263;28;20071;-73
2021/07/24 10:14:29;;;;;;;0.00;0.00;;;;;;;23.80;37.64;97217.34;5052653;28;20084;-74
2021/07/24 10:16:57;;;;;;;0.30;0.30;;;;;;;23.78;37.16;97207.69;5052393;28;20047;-74
2021/07/24 10:19:24;;;;;;;0.10;0.10;;;;;;;23.75;37.54;97217.63;5052580;28;20040;-74
2021/07/24 10:21:51;;;;;;;0.10;0.10;;;;;;;23.70;37.29;97212.28;5053006;28;20534;-75
2021/07/24 10:31:32;;;;;;;0.98;0.30;;;;;;;23.41;37.68;97205.94;5030756;28;20044;-73
2021/07/24 10:34:43;;;;;;;0.20;0.20;;;;;;;23.55;37.07;97207.50;5034432;28;20049;-73
2021/07/24 10:37:31;;;;;;;0.10;0.10;;;;;;;23.57;37.12;97205.97;5018186;28;20037;-71
2021/07/24 10:40:21;;;;;;;0.38;0.38;;;;;;;23.58;37.01;97201.16;5036066;28;20080;-73
2021/07/24 10:42:53;;;;;;;0.38;0.20;;;;;;;23.55;37.01;97205.50;5035684;28;20041;-73
2021/07/24 10:45:37;;;;;;;1.17;0.43;;;;;;;23.54;37.21;97201.09;5055084;28;20450;-69
2021/07/24 10:48:20;;;;;;;0.20;0.20;;;;;;;23.56;37.10;97207.13;5056038;28;20048;-72
2021/07/24 10:50:54;;;;;;;0.15;0.15;;;;;;;23.62;36.82;97216.91;5055917;28;20048;-73
2021/07/24 10:53:24;;;;;;;0.10;0.10;;;;;;;23.66;36.75;97214.19;5055970;28;20044;-72
2021/07/24 10:55:52;;;;;;;0.10;0.10;;;;;;;23.69;36.60;97209.84;5056024;28;20037;-78
2021/07/24 10:58:20;;;;;;;0.10;0.10;;;;;;;23.72;36.90;97211.94;5055486;28;20040;-73
2021/07/24 11:00:55;;;;;;;0.10;0.10;;;;;;;23.72;36.65;97211.94;5055600;28;20084;-74
2021/07/24 11:03:37;;;;;;;0.10;0.10;;;;;;;23.75;36.81;97208.44;5055507;28;20106;-73
2021/07/24 11:06:21;;;;;;;0.10;0.10;;;;;;;23.76;36.49;97208.06;5055371;28;20045;-72
2021/07/24 11:09:01;;;;;;;0.10;0.10;;;;;;;23.53;37.13;97212.66;5055681;28;20171;-71
2021/07/24 11:11:45;;;;;;;0.17;0.17;;;;;;;23.40;36.87;97212.72;5055212;28;20458;-72
2021/07/24 11:14:30;;;;;;;0.10;0.10;;;;;;;23.42;37.28;97217.94;5054291;28;20049;-72
2021/07/24 11:17:08;;;;;;;0.10;0.10;;;;;;;23.46;36.90;97213.25;5055488;28;20072;-73
2021/07/24 11:19:38;;;;;;;0.10;0.10;;;;;;;23.38;36.89;97211.44;5055187;28;20067;-72
2021/07/24 11:22:18;;;;;;;0.10;0.10;;;;;;;23.39;37.13;97211.06;5055672;28;20147;-74
2021/07/24 11:24:52;;;;;;;0.10;0.10;;;;;;;23.46;36.72;97199.25;5056069;28;20053;-72
2021/07/24 11:27:29;;;;;;;0.68;0.13;;;;;;;23.55;36.55;97215.91;5055552;28;20048;-72
2021/07/24 11:30:04;;;;;;;2.47;0.63;;;;;;;23.68;36.43;97209.03;5056101;28;20045;-73
2021/07/24 11:32:38;;;;;;;0.10;0.10;;;;;;;23.76;36.55;97205.25;5055779;28;20231;-73
2021/07/24 11:35:05;;;;;;;0.35;0.30;;;;;;;23.82;36.13;97216.19;5054978;28;20072;-73
2021/07/24 11:37:37;;;;;;;0.10;0.10;;;;;;;23.90;35.97;97212.44;5055528;28;20037;-74
2021/07/24 11:40:04;;;;;;;0.10;0.10;;;;;;;23.96;35.81;97214.56;5055435;28;20041;-73
2021/07/24 11:42:30;;;;;;;0.10;0.10;;;;;;;23.96;36.13;97219.38;5054784;28;20041;-73
2021/07/24 11:44:56;;;;;;;0.20;0.10;;;;;;;23.99;36.05;97227.06;5052555;28;20040;-73
2021/07/24 11:47:21;;;;;;;0.55;0.20;;;;;;;24.00;35.87;97228.69;5055285;28;20044;-73
2021/07/24 11:49:47;;;;;;;0.15;0.15;;;;;;;24.07;36.17;97223.28;5054802;28;20587;-73
2021/07/24 11:52:13;;;;;;;0.00;0.00;;;;;;;24.10;35.87;97227.31;5054904;28;20036;-72
2021/07/24 11:54:39;;;;;;;0.68;0.68;;;;;;;24.24;35.63;97232.47;5055733;28;20138;-75
2021/07/24 11:57:05;;;;;;;0.35;0.30;;;;;;;24.39;35.38;97222.41;5072296;28;20075;-73
2021/07/24 11:59:33;;;;;;;0.10;0.10;;;;;;;24.42;35.39;97216.06;5057120;28;20403;-73
2021/07/24 12:02:00;;;;;;;0.13;0.13;;;;;;;24.27;36.02;97220.53;5055194;28;20044;-78
2021/07/24 12:04:27;;;;;;;0.10;0.10;;;;;;;24.02;36.14;97217.94;5054426;28;20542;-73
2021/07/24 12:06:55;;;;;;;0.10;0.10;;;;;;;23.81;36.43;97220.97;5054928;28;20045;-77
2021/07/24 12:09:21;;;;;;;0.10;0.10;;;;;;;23.71;36.83;97232.72;5054669;28;20402;-78
2021/07/24 12:11:59;;;;;;;0.10;0.10;;;;;;;23.71;36.94;97221.53;5054108;28;20041;-76
2021/07/24 12:14:26;;;;;;;0.98;0.17;;;;;;;23.83;36.49;97229.03;5054270;28;20525;-78
2021/07/24 12:17:09;;;;;;;0.28;0.22;;;;;;;23.98;35.98;97228.22;5054461;28;20044;-73
2021/07/24 12:19:38;;;;;;;0.10;0.10;;;;;;;24.05;36.02;97224.81;5054261;28;20415;-73
2021/07/24 12:22:18;;;;;;;0.20;0.20;;;;;;;24.05;36.39;97231.22;5054397;28;20079;-72
2021/07/24 12:24:46;;;;;;;0.10;0.10;;;;;;;23.98;36.35;97233.84;5054241;28;20041;-73
2021/07/24 12:27:22;;;;;;;0.10;0.10;;;;;;;23.89;36.03;97230.41;5054395;28;20041;-74
2021/07/24 12:29:58;;;;;;;0.10;0.10;;;;;;;23.89;36.27;97236.00;5054615;28;20045;-75
2021/07/24 12:32:37;;;;;;;0.10;0.10;;;;;;;23.90;36.13;97235.66;5053981;28;20048;-73
2021/07/24 12:35:15;;;;;;;0.10;0.10;;;;;;;23.94;36.16;97241.38;5054028;28;20069;-73
2021/07/24 12:37:42;;;;;;;0.20;0.20;;;;;;;23.93;36.60;97237.72;5054374;28;20084;-73
2021/07/24 12:40:19;;;;;;;0.40;0.40;;;;;;;23.89;36.63;97241.63;5054344;28;20519;-73
2021/07/24 12:42:46;;;;;;;0.08;0.08;;;;;;;23.84;36.71;97250.28;5053788;28;20171;-74
2021/07/24 12:45:31;;;;;;;0.10;0.10;;;;;;;23.78;36.66;97250.53;5054325;28;20131;-72
2021/07/24 12:48:15;;;;;;;0.13;0.13;;;;;;;23.73;36.77;97252.78;5054485;28;20384;-73
2021/07/24 12:50:41;;;;;;;0.73;0.30;;;;;;;23.70;36.73;97254.31;5054147;28;20037;-73
2021/07/24 12:53:07;;;;;;;0.03;0.03;;;;;;;23.70;36.89;97261.91;5053989;28;20515;-72
2021/07/24 12:55:35;;;;;;;0.30;0.30;;;;;;;23.63;36.90;97268.16;5053562;28;20041;-73
2021/07/24 12:58:01;;;;;;;0.10;0.10;;;;;;;23.50;37.10;97278.59;5054117;28;20515;-73
2021/07/24 13:00:30;;;;;;;0.10;0.10;;;;;;;23.39;37.27;97278.28;5053913;28;20041;-73
2021/07/24 13:02:55;;;;;;;0.17;0.17;;;;;;;23.21;37.69;97288.19;5053497;28;20096;-72
2021/07/24 13:05:23;;;;;;;0.45;0.43;;;;;;;23.04;37.99;97281.69;5035351;28;20135;-73
2021/07/24 13:07:52;;;;;;;1.33;0.93;;;;;;;22.98;38.50;97287.88;5053558;28;20543;-73
2021/07/24 13:10:17;;;;;;;0.10;0.10;;;;;;;22.89;38.27;97293.59;5053510;28;20051;-72
2021/07/24 13:12:43;;;;;;;0.20;0.20;;;;;;;22.82;38.47;97301.78;5052887;28;20053;-73
2021/07/24 13:15:11;;;;;;;0.10;0.10;;;;;;;22.72;38.65;97294.72;5053239;28;20378;-74
2021/07/24 13:17:37;;;;;;;1.67;1.02;;;;;;;22.62;38.99;97303.56;5053223;28;20060;-72